createdAt,value
2022-08-22T00:01:33.523Z,4.13
2022-08-22T00:02:46.732Z,3.10
2022-08-22T00:02:49.028Z,2.85
2022-08-22T00:02:55.068Z,4.03
2022-08-22T00:03:04.983Z,5.07
2022-08-22T00:04:34.319Z,4.38
2022-08-22T00:07:20.869Z,3.17
2022-08-22T00:09:54.428Z,6.97
2022-08-22T00:12:40.345Z,3.92
2022-08-22T00:15:43.602Z,4.53
2022-08-22T00:18:13.782Z,3.38
2022-08-22T00:21:03.727Z,2.63
2022-08-22T00:23:38.450Z,5.18
2022-08-22T00:26:24.203Z,4.22
2022-08-22T00:29:08.627Z,6.25
2022-08-22T00:31:40.750Z,2.75
2022-08-22T00:34:13.971Z,3.55
2022-08-22T00:39:11.021Z,2.78
2022-08-22T00:41:50.527Z,2.58
2022-08-22T00:44:28.264Z,2.25
2022-08-22T00:47:08.725Z,2.35
2022-08-22T00:49:54.796Z,3.85
2022-08-22T00:52:58.902Z,3.50
2022-08-22T00:58:19.087Z,2.42
2022-08-22T01:00:54.221Z,2.70
2022-08-22T01:03:42.695Z,2.20
2022-08-22T01:06:23.351Z,2.22
2022-08-22T01:09:08.675Z,2.53
2022-08-22T01:11:44.409Z,2.83
2022-08-22T01:14:19.735Z,2.58
2022-08-22T01:17:33.235Z,3.13
2022-08-22T01:20:18.365Z,2.10
2022-08-22T01:22:59.081Z,2.17
2022-08-22T01:25:48.269Z,3.38
2022-08-22T01:28:41.157Z,1.95
2022-08-22T01:31:46.452Z,2.38
2022-08-22T01:37:07.570Z,3.10
2022-08-22T01:39:49.957Z,4.55
2022-08-22T01:42:22.699Z,4.43
2022-08-22T01:45:14.047Z,8.55
2022-08-22T01:47:47.606Z,2.60
2022-08-22T01:50:39.783Z,5.47
2022-08-22T01:53:22.830Z,6.38
2022-08-22T01:56:06.490Z,2.33
2022-08-22T01:58:37.230Z,3.88
2022-08-22T02:01:27.245Z,3.15
2022-08-22T02:04:19.706Z,2.50
2022-08-22T02:06:52.363Z,3.95
2022-08-22T02:09:49.823Z,2.20
2022-08-22T02:12:21.763Z,5.32
2022-08-22T02:15:03.779Z,4.45
2022-08-22T02:17:48.690Z,4.72
2022-08-22T02:20:20.469Z,3.50
2022-08-22T02:22:57.791Z,2.97
2022-08-22T02:25:32.705Z,5.63
2022-08-22T02:28:06.845Z,5.35
2022-08-22T02:30:46.321Z,4.57
2022-08-22T02:33:25.693Z,3.25
2022-08-22T02:36:03.053Z,3.75
2022-08-22T02:38:35.871Z,3.65
2022-08-22T02:41:25.169Z,5.50
2022-08-22T02:43:54.688Z,2.92
2022-08-22T02:46:30.466Z,3.40
2022-08-22T02:49:44.050Z,2.38
2022-08-22T02:52:18.679Z,3.70
2022-08-22T02:54:45.616Z,4.53
2022-08-22T02:57:40.317Z,2.28
2022-08-22T03:00:31.742Z,2.75
2022-08-22T03:03:03.721Z,6.15
2022-08-22T03:05:36.811Z,3.53
2022-08-22T03:08:24.608Z,2.35
2022-08-22T03:11:07.374Z,3.67
2022-08-22T03:13:49.297Z,2.80
2022-08-22T03:16:21.901Z,4.60
2022-08-22T03:19:18.519Z,4.75
2022-08-22T03:22:02.946Z,2.85
2022-08-22T03:24:44.539Z,4.00
2022-08-22T03:27:32.150Z,5.13
2022-08-22T03:30:10.121Z,5.13
2022-08-22T03:32:59.637Z,2.95
2022-08-22T03:35:35.258Z,4.43
2022-08-22T03:38:17.002Z,4.38
2022-08-22T03:41:07.899Z,3.45
2022-08-22T03:43:53.275Z,3.22
2022-08-22T03:46:41.130Z,3.97
2022-08-22T03:49:29.764Z,4.03
2022-08-22T03:52:14.590Z,3.50
2022-08-22T03:55:00.369Z,3.67
2022-08-22T03:57:50.504Z,4.60
2022-08-22T04:00:29.648Z,4.28
2022-08-22T04:03:35.953Z,4.22
2022-08-22T04:06:12.731Z,3.60
2022-08-22T04:09:20.495Z,4.38
2022-08-22T04:12:17.575Z,4.43
2022-08-22T04:14:54.401Z,4.50
2022-08-22T04:17:43.146Z,3.80
2022-08-22T04:20:13.094Z,4.55
2022-08-22T04:23:14.365Z,4.57
2022-08-22T04:25:45.271Z,5.72
2022-08-22T04:28:44.480Z,4.68
2022-08-22T04:31:18.765Z,4.38
2022-08-22T04:34:00.536Z,4.93
2022-08-22T04:36:40.793Z,4.65
2022-08-22T04:39:18.412Z,3.72
2022-08-22T04:41:52.899Z,8.15
2022-08-22T04:44:28.091Z,4.30
2022-08-22T04:47:07.128Z,5.55
2022-08-22T04:49:56.327Z,4.78
2022-08-22T04:52:41.449Z,5.72
2022-08-22T04:55:26.929Z,7.25
2022-08-22T04:58:19.571Z,4.95
2022-08-22T05:00:49.202Z,5.03
2022-08-22T05:03:19.703Z,5.72
2022-08-22T05:05:49.259Z,7.50
2022-08-22T05:08:25.151Z,5.10
2022-08-22T05:10:52.710Z,6.72
2022-08-22T05:13:30.644Z,8.57
2022-08-22T05:16:05.390Z,8.35
2022-08-22T05:18:39.848Z,8.70
2022-08-22T05:21:09.624Z,7.68
2022-08-22T05:23:48.238Z,6.50
2022-08-22T05:26:17.486Z,7.63
2022-08-22T05:28:58.552Z,10.07
2022-08-22T05:31:29.180Z,12.45
2022-08-22T05:34:05.263Z,7.38
2022-08-22T05:36:48.080Z,8.82
2022-08-22T05:39:20.277Z,6.88
2022-08-22T05:41:48.703Z,7.20
2022-08-22T05:44:24.215Z,7.32
2022-08-22T05:47:02.525Z,7.82
2022-08-22T05:49:54.274Z,7.90
2022-08-22T05:52:42.319Z,9.55
2022-08-22T05:55:36.690Z,8.63
2022-08-22T05:58:16.208Z,5.85
2022-08-22T06:00:46.022Z,8.75
2022-08-22T06:03:30.764Z,5.80
2022-08-22T06:06:01.975Z,8.02
2022-08-22T06:08:41.315Z,8.43
2022-08-22T06:11:19.339Z,10.60
2022-08-22T06:14:07.512Z,8.63
2022-08-22T06:16:51.156Z,6.25
2022-08-22T06:21:50.953Z,8.15
2022-08-22T06:24:26.985Z,10.35
2022-08-22T06:27:01.645Z,11.93
2022-08-22T06:29:34.435Z,7.68
2022-08-22T06:32:10.408Z,9.02
2022-08-22T06:34:41.658Z,15.52
2022-08-22T06:37:17.832Z,7.65
2022-08-22T06:39:49.261Z,14.65
2022-08-22T06:42:26.406Z,9.07
2022-08-22T06:45:00.488Z,10.05
2022-08-22T06:47:33.113Z,7.43
2022-08-22T06:50:06.032Z,9.13
2022-08-22T06:52:40.233Z,12.95
2022-08-22T06:55:09.235Z,7.53
2022-08-22T06:57:43.659Z,6.97
2022-08-22T07:00:17.098Z,8.48
2022-08-22T07:02:48.586Z,11.77
2022-08-22T07:05:19.292Z,8.88
2022-08-22T07:07:46.517Z,8.70
2022-08-22T07:10:15.031Z,11.30
2022-08-22T07:12:50.405Z,11.57
2022-08-22T07:15:36.669Z,12.32
2022-08-22T07:18:07.804Z,8.63
2022-08-22T07:20:38.976Z,7.95
2022-08-22T07:23:10.460Z,7.57
2022-08-22T07:26:02.940Z,9.95
2022-08-22T07:28:59.131Z,7.47
2022-08-22T07:31:38.219Z,12.15
2022-08-22T07:34:23.611Z,9.60
2022-08-22T07:37:00.536Z,7.43
2022-08-22T07:40:04.220Z,10.57
2022-08-22T07:42:47.651Z,10.13
2022-08-22T07:45:47.591Z,8.60
2022-08-22T07:48:25.563Z,8.88
2022-08-22T07:51:15.178Z,10.50
2022-08-22T07:53:46.489Z,11.52
2022-08-22T07:56:19.477Z,7.50
2022-08-22T08:01:19.372Z,8.23
2022-08-22T08:03:59.870Z,8.27
2022-08-22T08:06:28.393Z,9.75
2022-08-22T08:08:56.921Z,10.18
2022-08-22T08:11:27.461Z,9.73
2022-08-22T08:14:02.940Z,9.45
2022-08-22T08:16:39.935Z,11.43
2022-08-22T08:19:07.850Z,9.57
2022-08-22T08:21:51.106Z,11.77
2022-08-22T08:27:14.261Z,10.20
2022-08-22T08:29:51.279Z,10.88
2022-08-22T08:32:24.310Z,11.52
2022-08-22T08:37:27.596Z,8.50
2022-08-22T08:39:58.324Z,9.73
2022-08-22T08:42:25.044Z,7.72
2022-08-22T08:44:51.921Z,8.30
2022-08-22T08:47:30.729Z,10.63
2022-08-22T08:50:11.750Z,12.45
2022-08-22T08:52:58.608Z,7.70
2022-08-22T08:55:45.292Z,9.02
2022-08-22T08:58:48.827Z,13.80
2022-08-22T09:01:27.730Z,11.45
2022-08-22T09:04:33.119Z,19.90
2022-08-22T09:07:02.669Z,15.10
2022-08-22T09:10:11.416Z,16.48
2022-08-22T09:13:18.304Z,18.55
2022-08-22T09:16:16.847Z,11.65
2022-08-22T09:19:14.209Z,14.55
2022-08-22T09:22:14.245Z,11.60
2022-08-22T09:25:18.912Z,8.77
2022-08-22T09:28:13.663Z,10.13
2022-08-22T09:31:47.623Z,10.13
2022-08-22T09:34:50.122Z,8.48
2022-08-22T09:37:26.638Z,8.07
2022-08-22T09:40:06.213Z,10.02
2022-08-22T09:42:56.635Z,9.70
2022-08-22T09:45:39.009Z,8.02
2022-08-22T09:48:33.232Z,10.80
2022-08-22T09:51:34.612Z,8.32
2022-08-22T09:54:10.706Z,6.60
2022-08-22T09:57:13.904Z,8.60
2022-08-22T10:00:02.036Z,8.35
2022-08-22T10:02:55.168Z,6.65
2022-08-22T10:05:35.214Z,11.63
2022-08-22T10:08:30.478Z,8.25
2022-08-22T10:11:15.463Z,8.85
2022-08-22T10:14:00.561Z,9.63
2022-08-22T10:16:43.028Z,9.48
2022-08-22T10:19:38.923Z,7.85
2022-08-22T10:22:40.012Z,9.02
2022-08-22T10:25:28.673Z,8.38
2022-08-22T10:28:04.580Z,8.00
2022-08-22T10:31:17.944Z,8.75
2022-08-22T10:33:59.179Z,5.80
2022-08-22T10:36:42.533Z,8.05
2022-08-22T10:39:16.508Z,7.35
2022-08-22T10:42:19.250Z,7.72
2022-08-22T10:45:32.112Z,7.45
2022-08-22T10:48:22.987Z,7.18
2022-08-22T10:51:08.785Z,7.10
2022-08-22T10:53:58.596Z,7.55
2022-08-22T10:56:29.007Z,6.18
2022-08-22T10:59:31.067Z,7.63
2022-08-22T11:02:25.846Z,8.55
2022-08-22T11:04:55.918Z,7.38
2022-08-22T11:07:41.450Z,8.23
2022-08-22T11:10:53.560Z,7.10
2022-08-22T11:13:45.232Z,7.20
2022-08-22T11:16:27.472Z,8.25
2022-08-22T11:19:14.921Z,8.50
2022-08-22T11:22:10.001Z,11.15
2022-08-22T11:25:11.240Z,9.88
2022-08-22T11:28:11.091Z,9.70
2022-08-22T11:31:10.045Z,10.15
2022-08-22T11:33:51.500Z,7.53
2022-08-22T11:36:47.197Z,6.70
2022-08-22T11:39:33.840Z,5.85
2022-08-22T11:42:31.676Z,7.18
2022-08-22T11:45:01.495Z,7.72
2022-08-22T11:47:36.873Z,6.97
2022-08-22T11:50:24.853Z,9.48
2022-08-22T11:53:14.661Z,7.15
2022-08-22T11:56:10.623Z,7.38
2022-08-22T11:59:06.960Z,8.25
2022-08-22T12:01:49.536Z,9.48
2022-08-22T12:04:32.684Z,10.65
2022-08-22T12:07:31.326Z,8.18
2022-08-22T12:10:18.018Z,8.98
2022-08-22T12:12:57.623Z,9.82
2022-08-22T12:16:01.763Z,7.20
2022-08-22T12:18:37.804Z,11.07
2022-08-22T12:21:21.713Z,9.35
2022-08-22T12:23:55.612Z,13.30
2022-08-22T12:26:49.241Z,8.68
2022-08-22T12:29:33.757Z,8.63
2022-08-22T12:32:01.590Z,7.53
2022-08-22T12:34:38.843Z,10.75
2022-08-22T12:37:19.607Z,13.68
2022-08-22T12:39:52.388Z,10.57
2022-08-22T12:42:33.871Z,7.95
2022-08-22T12:45:19.933Z,9.75
2022-08-22T12:47:59.850Z,7.00
2022-08-22T12:50:35.999Z,6.95
2022-08-22T12:53:29.396Z,9.23
2022-08-22T12:56:24.843Z,8.82
2022-08-22T12:59:17.787Z,11.00
2022-08-22T13:01:48.215Z,7.43
2022-08-22T13:04:29.695Z,8.07
2022-08-22T13:07:24.250Z,8.20
2022-08-22T13:10:37.291Z,7.57
2022-08-22T13:13:12.172Z,8.05
2022-08-22T13:15:55.480Z,7.95
2022-08-22T13:18:31.098Z,10.20
2022-08-22T13:21:02.541Z,12.20
2022-08-22T13:23:42.600Z,12.88
2022-08-22T13:26:33.078Z,15.25
2022-08-22T13:31:59.198Z,18.77
2022-08-22T13:34:50.259Z,13.95
2022-08-22T13:37:24.507Z,16.02
2022-08-22T13:39:57.803Z,15.45
2022-08-22T13:42:30.837Z,15.02
2022-08-22T13:45:03.023Z,16.57
2022-08-22T13:47:39.620Z,16.58
2022-08-22T13:50:07.278Z,18.08
2022-08-22T13:53:00.148Z,16.38
2022-08-22T13:55:38.379Z,21.17
2022-08-22T13:58:25.109Z,19.73
2022-08-22T14:01:29.418Z,16.45
2022-08-22T14:04:05.524Z,16.33
2022-08-22T14:06:59.003Z,19.95
2022-08-22T14:09:40.663Z,14.30
2022-08-22T14:12:19.974Z,15.57
2022-08-22T14:14:54.630Z,14.65
2022-08-22T14:17:28.866Z,14.45
2022-08-22T14:20:02.185Z,15.75
2022-08-22T14:22:36.000Z,13.50
2022-08-22T14:27:59.122Z,15.93
2022-08-22T14:30:32.667Z,12.82
2022-08-22T14:33:13.361Z,15.63
2022-08-22T14:35:53.088Z,14.35
2022-08-22T14:38:35.196Z,12.35
2022-08-22T14:41:06.144Z,14.38
2022-08-22T14:43:33.254Z,16.08
2022-08-22T14:46:07.051Z,15.80
2022-08-22T14:49:00.437Z,12.45
2022-08-22T14:51:28.277Z,10.20
2022-08-22T14:54:14.042Z,9.48
2022-08-22T14:56:50.463Z,11.90
2022-08-22T14:59:34.699Z,6.70
2022-08-22T15:04:38.067Z,5.40
2022-08-22T15:07:06.809Z,4.35
2022-08-22T15:09:41.616Z,3.88
2022-08-22T15:12:45.102Z,5.68
2022-08-22T15:15:49.388Z,5.50
2022-08-22T15:18:35.876Z,2.80
2022-08-22T15:21:03.074Z,6.50
2022-08-22T15:23:45.007Z,5.88
2022-08-22T15:26:36.328Z,3.53
2022-08-22T15:29:20.747Z,5.57
2022-08-22T15:31:51.999Z,4.22
2022-08-22T15:34:40.009Z,3.30
2022-08-22T15:37:16.702Z,3.67
2022-08-22T15:39:58.503Z,2.90
2022-08-22T15:42:33.195Z,4.30
2022-08-22T15:45:01.289Z,3.60
2022-08-22T15:47:41.623Z,4.00
2022-08-22T15:50:14.672Z,2.88
2022-08-22T15:53:05.147Z,2.45
2022-08-22T15:55:34.329Z,3.20
2022-08-22T15:58:19.858Z,3.42
2022-08-22T16:01:20.471Z,2.83
2022-08-22T16:04:05.212Z,3.95
2022-08-22T16:06:55.252Z,5.82
2022-08-22T16:09:46.330Z,3.22
2022-08-22T16:12:28.132Z,5.93
2022-08-22T16:14:55.846Z,5.32
2022-08-22T16:17:28.398Z,5.68
2022-08-22T16:20:19.952Z,4.03
2022-08-22T16:22:56.586Z,3.05
2022-08-22T16:25:45.223Z,2.95
2022-08-22T16:29:00.509Z,2.65
2022-08-22T16:31:48.490Z,4.13
2022-08-22T16:34:18.559Z,2.80
2022-08-22T16:37:03.403Z,2.88
2022-08-22T16:39:44.758Z,2.65
2022-08-22T16:42:23.353Z,3.60
2022-08-22T16:45:02.606Z,4.35
2022-08-22T16:47:36.156Z,2.47
2022-08-22T16:50:09.516Z,4.78
2022-08-22T16:52:52.073Z,4.18
2022-08-22T16:55:30.944Z,4.30
2022-08-22T16:58:13.849Z,3.08
2022-08-22T17:00:58.003Z,3.70
2022-08-22T17:03:42.371Z,2.33
2022-08-22T17:06:36.896Z,5.82
2022-08-22T17:09:34.451Z,3.00
2022-08-22T17:12:39.196Z,3.45
2022-08-22T17:15:33.615Z,3.50
2022-08-22T17:18:38.972Z,3.33
2022-08-22T17:21:25.898Z,4.60
2022-08-22T17:24:33.658Z,4.03
2022-08-22T17:27:26.855Z,4.13
2022-08-22T17:30:02.266Z,6.85
2022-08-22T17:32:35.017Z,3.05
2022-08-22T17:35:33.605Z,4.35
2022-08-22T17:38:12.083Z,3.13
2022-08-22T17:40:56.366Z,7.95
2022-08-22T17:43:49.800Z,4.65
2022-08-22T17:46:35.541Z,3.22
2022-08-22T17:49:24.776Z,4.03
2022-08-22T17:52:14.907Z,5.97
2022-08-22T17:54:41.732Z,3.33
2022-08-22T17:57:14.482Z,4.93
2022-08-22T18:00:18.828Z,4.33
2022-08-22T18:03:06.662Z,2.80
2022-08-22T18:05:53.124Z,4.90
2022-08-22T18:09:13.400Z,3.80
2022-08-22T18:11:29.833Z,5.30
2022-08-22T18:14:13.390Z,4.47
2022-08-22T18:16:50.591Z,9.23
2022-08-22T18:19:23.540Z,4.20
2022-08-22T18:22:19.737Z,4.65
2022-08-22T18:25:03.675Z,4.88
2022-08-22T18:30:27.698Z,2.92
2022-08-22T18:33:11.473Z,5.53
2022-08-22T18:35:49.781Z,3.13
2022-08-22T18:38:34.656Z,2.22
2022-08-22T18:41:07.260Z,3.13
2022-08-22T18:43:44.982Z,2.35
2022-08-22T18:46:40.658Z,1.95
2022-08-22T18:49:24.332Z,2.40
2022-08-22T18:52:19.862Z,1.65
2022-08-22T18:55:24.080Z,1.98
2022-08-22T18:58:14.053Z,1.83
2022-08-22T19:01:19.594Z,2.30
2022-08-22T19:03:52.643Z,4.88
2022-08-22T19:06:36.553Z,2.38
2022-08-22T19:09:03.442Z,4.53
2022-08-22T19:11:49.039Z,1.88
2022-08-22T19:14:59.665Z,1.60
2022-08-22T19:17:39.294Z,6.28
2022-08-22T19:20:38.343Z,1.40
2022-08-22T19:23:37.088Z,2.65
2022-08-22T19:26:24.673Z,1.30
2022-08-22T19:29:18.742Z,3.00
2022-08-22T19:31:50.571Z,1.73
2022-08-22T19:34:28.225Z,1.75
2022-08-22T19:37:33.225Z,2.50
2022-08-22T19:40:09.984Z,1.63
2022-08-22T19:42:39.686Z,4.72
2022-08-22T19:45:06.638Z,2.22
2022-08-22T19:47:39.025Z,1.30
2022-08-22T19:50:31.071Z,2.73
2022-08-22T19:53:17.257Z,2.75
2022-08-22T19:56:09.589Z,2.08
2022-08-22T19:58:55.309Z,2.00
2022-08-22T20:01:40.675Z,2.47
2022-08-22T20:04:39.746Z,2.83
2022-08-22T20:07:27.004Z,3.22
2022-08-22T20:10:18.633Z,3.17
2022-08-22T20:13:10.326Z,3.03
2022-08-22T20:16:10.997Z,2.13
2022-08-22T20:19:03.569Z,2.80
2022-08-22T20:22:01.331Z,6.07
2022-08-22T20:24:49.231Z,3.42
2022-08-22T20:27:28.137Z,3.42
2022-08-22T20:30:25.033Z,3.15
2022-08-22T20:33:10.029Z,3.72
2022-08-22T20:35:45.217Z,5.35
2022-08-22T20:38:20.717Z,3.88
2022-08-22T20:40:56.048Z,4.35
2022-08-22T20:43:42.593Z,4.80
2022-08-22T20:46:15.684Z,4.38
2022-08-22T20:48:45.058Z,5.38
2022-08-22T20:51:16.096Z,3.10
2022-08-22T20:53:50.045Z,2.85
2022-08-22T20:56:30.804Z,2.63
2022-08-22T20:59:01.130Z,5.68
2022-08-22T21:01:29.096Z,6.03
2022-08-22T21:03:56.544Z,2.42
2022-08-22T21:06:32.416Z,9.63
2022-08-22T21:09:39.983Z,11.52
2022-08-22T21:12:09.656Z,3.65
2022-08-22T21:14:44.352Z,2.03
2022-08-22T21:17:20.877Z,1.98
2022-08-22T21:19:48.132Z,5.40
2022-08-22T21:22:31.759Z,3.83
2022-08-22T21:25:00.552Z,2.20
2022-08-22T21:27:33.475Z,2.22
2022-08-22T21:30:24.594Z,4.90
2022-08-22T21:32:55.921Z,3.83
2022-08-22T21:35:33.604Z,4.28
2022-08-22T21:38:01.391Z,4.68
2022-08-22T21:40:35.525Z,2.60
2022-08-22T21:43:12.038Z,3.40
2022-08-22T21:45:39.150Z,3.38
2022-08-22T21:48:33.147Z,4.10
2022-08-22T21:51:21.662Z,2.70
2022-08-22T21:53:49.008Z,3.38
2022-08-22T21:56:30.645Z,3.65
2022-08-22T21:59:26.676Z,5.10
2022-08-22T22:02:37.346Z,3.85
2022-08-22T22:05:14.868Z,3.83
2022-08-22T22:07:45.255Z,4.28
2022-08-22T22:10:16.929Z,5.63
2022-08-22T22:12:45.672Z,4.22
2022-08-22T22:15:17.158Z,3.95
2022-08-22T22:17:44.175Z,4.63
2022-08-22T22:20:12.225Z,4.43
2022-08-22T22:22:42.400Z,5.53
2022-08-22T22:25:39.825Z,5.72
2022-08-22T22:28:06.056Z,5.47
2022-08-22T22:30:33.175Z,7.63
2022-08-22T22:32:59.973Z,5.63
2022-08-22T22:35:26.942Z,6.88
2022-08-22T22:37:55.551Z,6.47
2022-08-22T22:40:24.118Z,6.70
2022-08-22T22:42:51.179Z,8.20
2022-08-22T22:45:18.255Z,7.20
2022-08-22T22:47:45.056Z,6.78
2022-08-22T22:50:11.810Z,7.32
2022-08-22T22:52:40.789Z,8.20
2022-08-22T22:55:09.094Z,6.75
2022-08-22T22:57:41.354Z,7.22
2022-08-22T23:00:12.733Z,7.68
2022-08-22T23:02:40.424Z,6.97
2022-08-22T23:05:09.718Z,7.97
2022-08-22T23:07:37.760Z,8.10
2022-08-22T23:10:07.076Z,8.90
2022-08-22T23:12:35.908Z,9.85
2022-08-22T23:15:05.403Z,9.27
2022-08-22T23:17:33.076Z,9.18
2022-08-22T23:20:00.154Z,10.30
2022-08-22T23:22:27.140Z,8.13
2022-08-22T23:24:53.960Z,8.32
2022-08-22T23:27:20.864Z,7.28
2022-08-22T23:29:48.005Z,7.50
2022-08-22T23:32:15.119Z,8.82
2022-08-22T23:34:45.942Z,8.40
2022-08-22T23:37:22.820Z,10.60
2022-08-22T23:39:50.159Z,9.88
2022-08-22T23:42:18.218Z,11.40
2022-08-22T23:44:45.921Z,9.30
2022-08-22T23:47:14.579Z,9.60
2022-08-22T23:49:43.149Z,10.75
2022-08-22T23:52:12.434Z,9.57
2022-08-22T23:54:39.239Z,9.38
2022-08-22T23:57:11.979Z,9.13
2022-08-22T23:59:44.601Z,12.32
